Time;durP1;ratioP1;P1;durP2;ratioP2;P2;SDS_P1;SDS_P2;PMS_P1;PMS_P2;Temp;Humidity;BMP_temperature;BMP_pressure;BME280_temperature;BME280_humidity;BME280_pressure;Samples;Min_cycle;Max_cycle;Signal;HPM_P1;HPM_P2
2023/03/26 00:01:55;;;;;;;;;;;;;;;16.88;45.30;99529.78;4973627;28;117728;-66
2023/03/26 00:04:24;;;;;;;;;;;;;;;16.87;45.30;99520.03;4970004;27;99070;-68
2023/03/26 00:06:50;;;;;;;;;;;;;;;16.87;45.45;99521.97;4973366;28;99617;-68
2023/03/26 00:09:16;;;;;;;;;;;;;;;16.87;45.42;99535.56;4971184;28;119672;-68
2023/03/26 00:11:42;;;;;;;;;;;;;;;16.85;45.33;99535.09;4955552;28;97954;-68
2023/03/26 00:14:12;;;;;;;;;;;;;;;16.84;45.33;99528.06;4956208;28;98437;-67
2023/03/26 00:16:38;;;;;;;;;;;;;;;16.84;45.41;99538.94;4960319;28;99344;-66
2023/03/26 00:19:04;;;;;;;;;;;;;;;16.83;45.41;99537.34;4972120;28;100811;-66
2023/03/26 00:21:30;;;;;;;;;;;;;;;16.81;45.31;99534.16;4973378;28;99383;-69
2023/03/26 00:24:03;;;;;;;;;;;;;;;16.80;45.26;99536.09;4972601;28;103169;-67
2023/03/26 00:26:30;;;;;;;;;;;;;;;16.81;45.40;99531.44;4971957;28;98472;-68
2023/03/26 00:28:56;;;;;;;;;;;;;;;16.79;45.40;99534.50;4972233;27;98157;-66
2023/03/26 00:31:22;;;;;;;;;;;;;;;16.79;45.21;99536.44;4960050;28;98578;-68
2023/03/26 00:33:53;;;;;;;;;;;;;;;16.79;45.36;99550.03;4970578;27;127821;-67
2023/03/26 00:36:19;;;;;;;;;;;;;;;16.77;45.39;99553.06;4975059;28;98218;-68
2023/03/26 00:38:46;;;;;;;;;;;;;;;16.76;45.34;99546.03;4971407;28;97942;-67
2023/03/26 00:41:21;;;;;;;;;;;;;;;16.75;45.24;99555.34;4974608;27;97901;-67
2023/03/26 00:43:47;;;;;;;;;;;;;;;16.74;45.30;99547.47;4971917;28;99228;-66
2023/03/26 00:46:13;;;;;;;;;;;;;;;16.74;45.39;99542.03;4974227;28;99206;-68
2023/03/26 00:48:41;;;;;;;;;;;;;;;16.74;45.29;99542.03;4970024;28;127996;-67
2023/03/26 00:51:08;;;;;;;;;;;;;;;16.73;45.40;99537.72;4970950;28;97992;-68
2023/03/26 00:53:37;;;;;;;;;;;;;;;16.72;45.30;99541.56;4969888;28;128369;-67
2023/03/26 00:56:03;;;;;;;;;;;;;;;16.71;45.35;99543.50;4974560;28;98675;-67
2023/03/26 00:58:29;;;;;;;;;;;;;;;16.71;45.30;99542.69;4958427;28;98460;-66
2023/03/26 01:00:56;;;;;;;;;;;;;;;16.69;45.21;99537.56;4971379;27;97826;-68
2023/03/26 01:03:23;;;;;;;;;;;;;;;16.69;45.42;99541.09;4972577;28;128190;-68
2023/03/26 01:06:01;;;;;;;;;;;;;;;16.68;45.37;99544.94;4970848;28;99100;-66
2023/03/26 01:08:38;;;;;;;;;;;;;;;16.67;45.29;99545.28;4959401;28;98024;-68
2023/03/26 01:11:12;;;;;;;;;;;;;;;16.66;45.31;99539.03;4945913;28;98087;-67
2023/03/26 01:14:07;;;;;;;;;;;;;;;16.65;45.35;99537.44;4959820;28;98687;-66
2023/03/26 01:16:44;;;;;;;;;;;;;;;16.65;45.36;99542.06;4946004;28;100169;-69
2023/03/26 01:19:36;;;;;;;;;;;;;;;16.64;45.42;99544.00;4944117;28;100396;-66
2023/03/26 01:22:04;;;;;;;;;;;;;;;16.64;45.41;99554.88;4947004;28;98015;-67
2023/03/26 01:24:30;;;;;;;;;;;;;;;16.64;45.43;99540.50;4971762;28;99240;-66
2023/03/26 01:27:26;;;;;;;;;;;;;;;16.62;45.43;99538.13;4974026;28;123953;-66
2023/03/26 01:29:54;;;;;;;;;;;;;;;16.62;45.29;99550.88;4975361;27;98384;-68
2023/03/26 01:32:47;;;;;;;;;;;;;;;16.61;45.40;99539.22;4941035;28;98307;-67
2023/03/26 01:35:20;;;;;;;;;;;;;;;16.61;45.34;99543.84;4960487;28;113218;-67
2023/03/26 01:38:01;;;;;;;;;;;;;;;16.60;45.19;99536.84;4942714;28;118114;-66
2023/03/26 01:40:41;;;;;;;;;;;;;;;16.58;45.29;99544.50;4972579;28;97947;-66
2023/03/26 01:43:21;;;;;;;;;;;;;;;16.58;45.29;99541.78;4971552;27;97912;-66
2023/03/26 01:45:47;;;;;;;;;;;;;;;16.57;45.34;99537.50;4945010;28;99331;-66
2023/03/26 01:48:13;;;;;;;;;;;;;;;16.56;45.33;99539.41;4954137;28;128100;-68
2023/03/26 01:50:39;;;;;;;;;;;;;;;16.55;45.31;99542.47;4970224;28;126046;-66
2023/03/26 01:53:05;;;;;;;;;;;;;;;16.54;45.33;99538.94;4969546;28;97947;-66
2023/03/26 01:55:48;;;;;;;;;;;;;;;16.54;45.34;99535.41;4959420;28;125731;-67
2023/03/26 01:58:38;;;;;;;;;;;;;;;16.53;45.32;99537.34;4959280;28;98429;-67
2023/03/26 02:01:35;;;;;;;;;;;;;;;16.53;45.29;99539.28;4960415;28;98852;-67
2023/03/26 02:04:08;;;;;;;;;;;;;;;16.52;45.36;99543.13;4967898;28;97999;-68
2023/03/26 02:06:52;;;;;;;;;;;;;;;16.50;45.25;99535.28;4956239;28;123933;-66
2023/03/26 02:09:21;;;;;;;;;;;;;;;16.49;45.41;99527.47;4958000;28;98669;-68
2023/03/26 02:11:47;;;;;;;;;;;;;;;16.47;45.36;99541.41;4944433;28;99687;-66
2023/03/26 02:14:13;;;;;;;;;;;;;;;16.47;45.25;99535.16;4958017;28;116522;-68
2023/03/26 02:16:39;;;;;;;;;;;;;;;16.47;45.23;99535.16;4943668;28;128097;-66
2023/03/26 02:19:08;;;;;;;;;;;;;;;16.45;45.32;99535.47;4971652;28;126667;-68
2023/03/26 02:21:34;;;;;;;;;;;;;;;16.44;45.29;99531.16;4972008;28;98440;-68
2023/03/26 02:24:03;;;;;;;;;;;;;;;16.43;45.21;99529.59;4972310;28;115604;-67
2023/03/26 02:26:30;;;;;;;;;;;;;;;16.42;45.29;99533.41;4972933;28;98447;-67
2023/03/26 02:28:57;;;;;;;;;;;;;;;16.41;45.43;99538.06;4973074;27;98795;-66
2023/03/26 02:31:26;;;;;;;;;;;;;;;16.41;45.29;99535.31;4973162;28;98409;-68
2023/03/26 02:33:54;;;;;;;;;;;;;;;16.40;45.42;99533.75;4974067;28;98126;-68
2023/03/26 02:36:23;;;;;;;;;;;;;;;16.39;45.29;99536.81;4959363;28;98381;-68
2023/03/26 02:38:50;;;;;;;;;;;;;;;16.37;45.29;99533.59;4970912;28;98635;-66
2023/03/26 02:41:16;;;;;;;;;;;;;;;16.36;45.35;99537.44;4972160;28;99467;-68
2023/03/26 02:43:42;;;;;;;;;;;;;;;16.34;45.22;99537.75;4969527;28;117310;-68
2023/03/26 02:46:08;;;;;;;;;;;;;;;16.35;45.24;99533.16;4968964;28;127974;-67
2023/03/26 02:48:34;;;;;;;;;;;;;;;16.34;45.24;99526.09;4971827;28;128008;-67
2023/03/26 02:51:02;;;;;;;;;;;;;;;16.33;45.26;99547.06;4971128;28;114916;-66
2023/03/26 02:53:28;;;;;;;;;;;;;;;16.33;45.27;99543.53;4969829;28;111534;-69
2023/03/26 02:55:55;;;;;;;;;;;;;;;16.31;45.29;99543.88;4972469;28;127439;-68
2023/03/26 02:58:24;;;;;;;;;;;;;;;16.31;45.38;99548.50;4966962;27;100521;-67
2023/03/26 03:00:53;;;;;;;;;;;;;;;16.29;45.46;99545.31;4969225;28;98406;-68
2023/03/26 03:03:23;;;;;;;;;;;;;;;16.28;45.26;99539.09;4973045;28;98060;-68
2023/03/26 03:05:50;;;;;;;;;;;;;;;16.27;45.28;99544.84;4967986;28;99029;-68
2023/03/26 03:08:17;;;;;;;;;;;;;;;16.25;45.47;99537.03;4971579;28;98742;-68
2023/03/26 03:10:43;;;;;;;;;;;;;;;16.24;45.42;99537.34;4971636;28;97999;-68
2023/03/26 03:13:09;;;;;;;;;;;;;;;16.23;45.48;99539.28;4959039;28;100630;-68
2023/03/26 03:15:35;;;;;;;;;;;;;;;16.22;45.47;99537.66;4973937;28;99736;-68
2023/03/26 03:18:01;;;;;;;;;;;;;;;16.20;45.49;99539.94;4972110;28;128016;-69
2023/03/26 03:20:29;;;;;;;;;;;;;;;16.19;45.26;99541.03;4967668;28;126791;-66
2023/03/26 03:22:55;;;;;;;;;;;;;;;16.19;45.43;99543.75;4953971;28;98739;-69
2023/03/26 03:25:22;;;;;;;;;;;;;;;16.19;45.35;99536.41;4971552;28;98609;-68
2023/03/26 03:27:49;;;;;;;;;;;;;;;16.25;45.38;99545.19;4942527;27;98525;-66
2023/03/26 03:30:15;;;;;;;;;;;;;;;16.31;45.46;99546.59;4969814;28;98119;-66
2023/03/26 03:32:40;;;;;;;;;;;;;;;16.37;45.52;99552.63;4973923;28;97842;-66
2023/03/26 03:35:07;;;;;;;;;;;;;;;16.42;45.26;99542.34;4969047;28;128582;-69
2023/03/26 03:37:33;;;;;;;;;;;;;;;16.45;45.10;99541.72;4969821;28;98920;-67
2023/03/26 03:39:58;;;;;;;;;;;;;;;16.48;45.36;99542.19;4953726;28;117321;-68
2023/03/26 03:42:26;;;;;;;;;;;;;;;16.50;45.42;99543.44;4971389;28;115942;-66
2023/03/26 03:44:52;;;;;;;;;;;;;;;16.52;45.34;99534.97;4959931;28;99071;-67
2023/03/26 03:47:19;;;;;;;;;;;;;;;16.53;45.36;99540.06;4966459;28;98867;-68
2023/03/26 03:49:45;;;;;;;;;;;;;;;16.54;45.43;99547.09;4967382;28;98065;-66
2023/03/26 03:52:10;;;;;;;;;;;;;;;16.55;45.48;99547.91;4970989;28;117328;-66
2023/03/26 03:54:36;;;;;;;;;;;;;;;16.55;45.55;99545.19;4951436;28;128119;-67
2023/03/26 03:57:02;;;;;;;;;;;;;;;16.56;45.50;99552.22;4951343;28;128546;-66
2023/03/26 03:59:28;;;;;;;;;;;;;;;16.56;45.42;99549.50;4968598;28;124915;-68
2023/03/26 04:01:54;;;;;;;;;;;;;;;16.56;45.37;99549.50;4969213;28;98789;-68
2023/03/26 04:04:20;;;;;;;;;;;;;;;16.56;45.36;99550.28;4972651;28;128144;-68
2023/03/26 04:06:46;;;;;;;;;;;;;;;16.55;45.48;99548.72;4972511;27;99179;-68
2023/03/26 04:09:12;;;;;;;;;;;;;;;16.56;45.40;99544.06;4974030;28;127227;-66
2023/03/26 04:11:38;;;;;;;;;;;;;;;16.56;45.34;99544.06;4973024;28;115327;-68
2023/03/26 04:14:04;;;;;;;;;;;;;;;16.54;45.52;99540.84;4973297;28;127852;-67
2023/03/26 04:16:30;;;;;;;;;;;;;;;16.54;45.28;99535.41;4978869;28;99071;-69
2023/03/26 04:18:57;;;;;;;;;;;;;;;16.54;45.46;99532.69;4975244;28;128496;-68
2023/03/26 04:21:23;;;;;;;;;;;;;;;16.52;45.31;99538.47;4947924;28;98352;-67
2023/03/26 04:23:49;;;;;;;;;;;;;;;16.51;45.50;99539.63;4979114;28;98573;-67
2023/03/26 04:26:17;;;;;;;;;;;;;;;16.50;45.40;99539.91;4957800;28;128056;-69
2023/03/26 04:28:52;;;;;;;;;;;;;;;16.49;45.50;99541.06;4975778;27;98456;-69
2023/03/26 04:31:22;;;;;;;;;;;;;;;16.47;45.39;99540.59;4974862;28;98084;-66
2023/03/26 04:33:53;;;;;;;;;;;;;;;16.44;45.46;99540.13;4946499;28;99063;-67
2023/03/26 04:36:19;;;;;;;;;;;;;;;16.44;45.45;99539.31;4961501;28;98503;-68
2023/03/26 04:38:47;;;;;;;;;;;;;;;16.41;45.48;99539.97;4975509;28;98466;-69
2023/03/26 04:41:13;;;;;;;;;;;;;;;16.40;45.36;99536.47;4973990;28;98199;-69
2023/03/26 04:43:46;;;;;;;;;;;;;;;16.39;45.48;99536.81;4976836;28;120555;-67
2023/03/26 04:46:17;;;;;;;;;;;;;;;16.38;45.57;99537.91;4972592;28;99036;-69
2023/03/26 04:48:43;;;;;;;;;;;;;;;16.35;45.40;99530.44;4974040;28;98098;-68
2023/03/26 04:51:17;;;;;;;;;;;;;;;16.35;45.47;99538.59;4970854;28;115342;-68
2023/03/26 04:53:58;;;;;;;;;;;;;;;16.34;45.61;99526.88;4955651;28;98578;-67
2023/03/26 04:56:46;;;;;;;;;;;;;;;16.34;45.48;99532.31;4966991;27;127941;-68
2023/03/26 04:59:14;;;;;;;;;;;;;;;16.35;45.60;99536.66;4947405;28;98314;-67
2023/03/26 05:01:40;;;;;;;;;;;;;;;16.34;45.53;99534.25;4942315;28;116520;-67
2023/03/26 05:04:07;;;;;;;;;;;;;;;16.34;45.45;99536.97;4969084;28;98517;-69
2023/03/26 05:06:33;;;;;;;;;;;;;;;16.34;45.46;99540.47;4964614;28;115048;-70
2023/03/26 05:09:00;;;;;;;;;;;;;;;16.33;45.47;99549.78;4956285;28;98314;-67
2023/03/26 05:11:26;;;;;;;;;;;;;;;16.33;45.52;99546.25;4973150;28;97967;-67
2023/03/26 05:13:52;;;;;;;;;;;;;;;16.33;45.48;99538.09;4973980;27;112975;-67
2023/03/26 05:16:19;;;;;;;;;;;;;;;16.35;45.35;99533.94;4974082;28;128723;-69
2023/03/26 05:18:45;;;;;;;;;;;;;;;16.38;45.49;99537.91;4957547;28;116484;-68
2023/03/26 05:21:11;;;;;;;;;;;;;;;16.40;45.40;99544.63;4974039;28;100151;-67
2023/03/26 05:23:37;;;;;;;;;;;;;;;16.44;45.19;99542.03;4974363;28;98760;-67
2023/03/26 05:26:03;;;;;;;;;;;;;;;16.47;45.15;99551.47;4975005;28;128844;-67
2023/03/26 05:28:29;;;;;;;;;;;;;;;16.45;45.37;99544.44;4972597;27;124894;-67
2023/03/26 05:30:55;;;;;;;;;;;;;;;16.48;45.25;99544.91;4975888;28;118362;-68
2023/03/26 05:33:21;;;;;;;;;;;;;;;16.49;45.31;99551.94;4973534;28;128586;-67
2023/03/26 05:35:48;;;;;;;;;;;;;;;16.51;45.28;99549.69;4972724;28;101256;-68
2023/03/26 05:38:14;;;;;;;;;;;;;;;16.52;45.25;99543.13;4954988;28;98465;-68
2023/03/26 05:40:40;;;;;;;;;;;;;;;16.54;45.25;99546.31;4973464;28;97958;-66
2023/03/26 05:43:06;;;;;;;;;;;;;;;16.56;45.19;99557.66;4972909;28;104655;-69
2023/03/26 05:45:32;;;;;;;;;;;;;;;16.59;45.07;99551.56;4973206;28;127447;-67
2023/03/26 05:47:58;;;;;;;;;;;;;;;16.66;45.12;99552.66;4973636;28;126791;-67
2023/03/26 05:50:24;;;;;;;;;;;;;;;16.73;45.07;99551.31;4976619;28;98156;-69
2023/03/26 05:52:49;;;;;;;;;;;;;;;16.76;45.00;99550.69;4969711;28;99444;-69
2023/03/26 05:55:18;;;;;;;;;;;;;;;16.80;44.92;99555.13;4973640;27;97965;-67
2023/03/26 05:57:44;;;;;;;;;;;;;;;16.89;44.98;99557.78;4973650;28;97968;-67
2023/03/26 06:00:11;;;;;;;;;;;;;;;16.93;44.84;99553.28;4974334;28;118370;-69
2023/03/26 06:02:37;;;;;;;;;;;;;;;16.98;44.84;99544.09;4973111;28;98527;-69
2023/03/26 06:05:03;;;;;;;;;;;;;;;17.04;44.81;99551.75;4972886;28;128962;-67
2023/03/26 06:07:30;;;;;;;;;;;;;;;17.07;44.91;99559.25;4970579;28;103601;-69
2023/03/26 06:09:55;;;;;;;;;;;;;;;17.11;44.99;99559.41;4973478;28;97841;-69
2023/03/26 06:12:21;;;;;;;;;;;;;;;17.13;44.90;99565.28;4971222;28;128101;-69
2023/03/26 06:14:47;;;;;;;;;;;;;;;17.16;44.86;99564.63;4970683;28;126316;-67
2023/03/26 06:17:13;;;;;;;;;;;;;;;17.18;44.77;99567.84;4968457;28;128438;-68
2023/03/26 06:19:39;;;;;;;;;;;;;;;17.25;44.74;99565.38;4969425;28;98066;-67
2023/03/26 06:22:05;;;;;;;;;;;;;;;17.41;44.70;99562.84;4957875;27;99635;-69
2023/03/26 06:24:31;;;;;;;;;;;;;;;17.49;44.56;99564.69;4968927;28;109700;-67
2023/03/26 06:26:57;;;;;;;;;;;;;;;17.54;44.49;99572.66;4970370;28;98295;-69
2023/03/26 06:29:23;;;;;;;;;;;;;;;17.63;44.48;99556.22;4968632;27;118018;-67
2023/03/26 06:31:49;;;;;;;;;;;;;;;17.72;44.57;99562.34;4954785;28;123221;-69
2023/03/26 06:34:15;;;;;;;;;;;;;;;17.77;44.58;99567.66;4936773;28;128326;-67
2023/03/26 06:36:41;;;;;;;;;;;;;;;17.87;44.50;99566.41;4970062;28;127726;-67
2023/03/26 06:39:07;;;;;;;;;;;;;;;17.98;44.36;99566.78;4951497;28;116788;-67
2023/03/26 06:41:34;;;;;;;;;;;;;;;18.07;44.13;99554.63;4964656;27;127471;-67
2023/03/26 06:44:00;;;;;;;;;;;;;;;18.15;44.30;99556.44;4952082;28;98460;-67
2023/03/26 06:46:26;;;;;;;;;;;;;;;18.21;44.14;99548.84;4954559;28;127235;-67
2023/03/26 06:48:52;;;;;;;;;;;;;;;18.32;44.14;99557.38;4966156;28;117210;-69
2023/03/26 06:51:18;;;;;;;;;;;;;;;18.40;44.11;99554.53;4970464;28;98201;-67
2023/03/26 06:53:44;;;;;;;;;;;;;;;18.58;44.01;99555.09;4968095;28;127256;-69
2023/03/26 06:56:10;;;;;;;;;;;;;;;18.68;44.01;99548.38;4967810;28;99070;-69
2023/03/26 06:58:36;;;;;;;;;;;;;;;18.64;44.22;99545.53;4967276;28;116504;-69
2023/03/26 07:01:01;;;;;;;;;;;;;;;18.77;44.16;99551.00;4969919;28;98767;-67
2023/03/26 07:03:28;;;;;;;;;;;;;;;18.81;44.00;99549.97;4944365;27;129586;-69
2023/03/26 07:05:54;;;;;;;;;;;;;;;18.91;44.13;99551.44;4971106;27;98337;-69
2023/03/26 07:08:20;;;;;;;;;;;;;;;19.05;43.87;99543.66;4971564;27;116932;-69
2023/03/26 07:10:46;;;;;;;;;;;;;;;19.16;43.89;99549.44;4974044;27;127037;-67
2023/03/26 07:13:12;;;;;;;;;;;;;;;19.57;43.42;99550.97;4952252;28;98330;-67
2023/03/26 07:15:38;;;;;;;;;;;;;;;19.59;43.60;99547.88;4937215;28;123937;-67
2023/03/26 07:18:04;;;;;;;;;;;;;;;19.77;43.59;99548.41;4951424;28;117631;-69
2023/03/26 07:20:30;;;;;;;;;;;;;;;20.06;43.29;99553.44;4955926;28;126359;-67
2023/03/26 07:22:56;;;;;;;;;;;;;;;19.98;43.48;99542.69;4962542;28;125994;-68
2023/03/26 07:25:22;;;;;;;;;;;;;;;19.98;43.68;99550.88;4964817;28;98096;-69
2023/03/26 07:28:11;;;;;;;;;;;;;;;20.11;43.45;99549.66;4968314;27;107239;-69
2023/03/26 07:30:44;;;;;;;;;;;;;;;20.34;43.29;99547.88;4958998;28;98467;-69
2023/03/26 07:33:15;;;;;;;;;;;;;;;20.29;43.51;99552.84;4955212;28;100556;-67
2023/03/26 07:35:53;;;;;;;;;;;;;;;20.26;43.77;99537.91;4972947;28;97892;-69
2023/03/26 07:38:30;;;;;;;;;;;;;;;20.30;43.70;99546.19;4953372;28;99711;-69
2023/03/26 07:41:10;;;;;;;;;;;;;;;20.21;43.93;99542.88;4958120;28;98542;-67
2023/03/26 07:43:41;;;;;;;;;;;;;;;20.10;44.09;99537.13;4965740;28;127748;-69
2023/03/26 07:46:09;;;;;;;;;;;;;;;19.93;44.37;99545.69;4955431;28;104561;-67
2023/03/26 07:48:39;;;;;;;;;;;;;;;19.90;44.38;99535.44;4953503;28;106855;-69
2023/03/26 07:51:06;;;;;;;;;;;;;;;19.97;44.26;99549.31;4969653;27;98380;-69
2023/03/26 07:53:32;;;;;;;;;;;;;;;20.02;44.17;99543.56;4970809;28;99213;-67
2023/03/26 07:56:07;;;;;;;;;;;;;;;20.04;44.15;99542.06;4968680;28;126915;-67
2023/03/26 07:58:56;;;;;;;;;;;;;;;20.13;44.04;99530.16;4967539;28;115330;-69
2023/03/26 08:02:03;;;;;;;;;;;;;;;20.29;43.82;99525.47;4968443;28;98086;-69
2023/03/26 08:04:52;;;;;;;;;;;;;;;20.53;43.60;99535.44;4968700;28;98046;-68
2023/03/26 08:07:33;;;;;;;;;;;;;;;20.61;43.70;99525.44;4958562;28;98435;-68
2023/03/26 08:10:29;;;;;;;;;;;;;;;20.65;43.68;99527.09;4969019;28;97919;-69
2023/03/26 08:13:20;;;;;;;;;;;;;;;20.81;43.68;99525.09;4947933;28;127276;-67
2023/03/26 08:16:12;;;;;;;;;;;;;;;20.84;43.59;99518.91;4970452;28;99632;-67
2023/03/26 08:18:50;;;;;;;;;;;;;;;20.84;43.77;99518.91;4959994;28;98178;-69
2023/03/26 08:21:16;;;;;;;;;;;;;;;20.88;43.71;99520.94;4968068;28;99159;-69
2023/03/26 08:24:00;;;;;;;;;;;;;;;20.98;43.69;99517.63;4952989;28;99266;-67
2023/03/26 08:26:29;;;;;;;;;;;;;;;20.97;43.79;99514.09;4964285;28;98824;-67
2023/03/26 08:29:16;;;;;;;;;;;;;;;21.01;43.81;99509.47;4949204;28;112163;-67
2023/03/26 08:31:43;;;;;;;;;;;;;;;20.91;43.79;99507.34;4959513;28;98141;-67
2023/03/26 08:34:10;;;;;;;;;;;;;;;20.83;44.10;99506.38;4933691;28;98649;-69
2023/03/26 08:36:36;;;;;;;;;;;;;;;20.70;44.25;99499.44;4969097;28;99164;-69
2023/03/26 08:39:02;;;;;;;;;;;;;;;20.59;44.40;99506.63;4968750;28;98585;-69
2023/03/26 08:41:38;;;;;;;;;;;;;;;20.46;44.35;99507.88;4968702;28;98286;-67
2023/03/26 08:44:40;;;;;;;;;;;;;;;20.40;44.43;99504.63;4965141;28;100704;-67
2023/03/26 08:47:25;;;;;;;;;;;;;;;20.34;44.48;99506.81;4948429;28;99773;-69
2023/03/26 08:50:21;;;;;;;;;;;;;;;20.27;44.46;99506.66;4967932;27;99749;-69
2023/03/26 08:53:07;;;;;;;;;;;;;;;20.14;44.69;99505.19;4958193;28;97930;-69
2023/03/26 08:55:53;;;;;;;;;;;;;;;19.94;44.85;99501.56;4956320;28;98627;-67
2023/03/26 08:58:19;;;;;;;;;;;;;;;19.82;44.95;99515.31;4972054;28;98462;-67
2023/03/26 09:00:48;;;;;;;;;;;;;;;19.74;44.99;99502.63;4966662;28;98452;-67
2023/03/26 09:03:42;;;;;;;;;;;;;;;19.67;45.00;99513.38;4951460;28;116364;-67
2023/03/26 09:06:23;;;;;;;;;;;;;;;19.60;44.99;99513.94;4943954;28;98706;-69
2023/03/26 09:09:07;;;;;;;;;;;;;;;19.51;45.09;99502.38;4955577;28;120317;-68
2023/03/26 09:11:51;;;;;;;;;;;;;;;19.46;45.08;99497.97;4943692;28;98345;-69
2023/03/26 09:14:42;;;;;;;;;;;;;;;19.55;44.87;99506.00;4970395;28;98069;-69
2023/03/26 09:17:35;;;;;;;;;;;;;;;19.64;44.55;99505.88;4957503;28;98467;-69
2023/03/26 09:20:42;;;;;;;;;;;;;;;19.57;44.85;99498.22;4959059;28;120201;-69
2023/03/26 09:23:32;;;;;;;;;;;;;;;19.48;44.85;99494.88;4971700;28;98008;-67
2023/03/26 09:26:13;;;;;;;;;;;;;;;19.44;44.90;99499.47;4925307;28;104992;-67
2023/03/26 09:29:12;;;;;;;;;;;;;;;19.47;44.71;99494.09;4972554;27;98317;-69
2023/03/26 09:31:42;;;;;;;;;;;;;;;19.88;44.14;99496.72;4950922;28;100507;-67
2023/03/26 09:34:43;;;;;;;;;;;;;;;20.18;43.90;99481.44;4961339;28;101839;-67
2023/03/26 09:37:37;;;;;;;;;;;;;;;20.91;43.17;99488.16;4959930;28;117155;-69
2023/03/26 09:40:10;;;;;;;;;;;;;;;20.69;43.68;99475.16;4939435;28;127107;-67
2023/03/26 09:42:59;;;;;;;;;;;;;;;20.49;43.96;99482.56;4954829;28;108537;-69
2023/03/26 09:45:39;;;;;;;;;;;;;;;20.30;44.25;99484.06;4957188;28;99365;-68
2023/03/26 09:48:10;;;;;;;;;;;;;;;20.21;44.35;99483.47;4957678;28;98972;-67
2023/03/26 09:50:58;;;;;;;;;;;;;;;20.19;44.38;99482.22;4951432;28;98524;-67
2023/03/26 09:53:46;;;;;;;;;;;;;;;20.16;44.37;99481.00;4956723;28;98300;-67
2023/03/26 09:56:50;;;;;;;;;;;;;;;20.23;44.20;99480.38;4956795;28;98328;-69
2023/03/26 09:59:21;;;;;;;;;;;;;;;20.44;44.01;99471.88;4968448;28;97926;-68
2023/03/26 10:02:17;;;;;;;;;;;;;;;20.53;43.91;99467.78;4968708;28;98731;-67
2023/03/26 10:04:59;;;;;;;;;;;;;;;20.55;43.95;99472.91;4953174;28;123899;-69
2023/03/26 10:08:01;;;;;;;;;;;;;;;20.71;43.74;99483.81;4951818;28;98026;-69
2023/03/26 10:10:31;;;;;;;;;;;;;;;20.78;43.74;99468.31;4891830;28;98352;-67
2023/03/26 10:13:24;;;;;;;;;;;;;;;20.97;43.65;99464.78;4954977;28;98623;-68
2023/03/26 10:15:59;;;;;;;;;;;;;;;21.36;43.07;99469.47;4970409;28;98777;-69
2023/03/26 10:18:48;;;;;;;;;;;;;;;21.64;42.99;99455.50;4969044;28;97993;-67
2023/03/26 10:21:32;;;;;;;;;;;;;;;21.56;43.29;99451.81;4952263;28;99409;-68
2023/03/26 10:24:31;;;;;;;;;;;;;;;21.51;43.41;99458.41;4967183;28;98734;-68
2023/03/26 10:27:01;;;;;;;;;;;;;;;21.54;43.63;99454.94;4952820;28;126960;-67
2023/03/26 10:29:44;;;;;;;;;;;;;;;21.54;43.59;99457.69;4969519;28;120974;-69
2023/03/26 10:32:32;;;;;;;;;;;;;;;21.46;43.78;99449.72;4968365;28;97989;-67
2023/03/26 10:35:10;;;;;;;;;;;;;;;21.43;43.80;99453.19;4956906;28;98503;-68
2023/03/26 10:38:07;;;;;;;;;;;;;;;21.65;43.47;99451.59;4953513;28;120520;-67
2023/03/26 10:40:41;;;;;;;;;;;;;;;22.16;42.79;99449.28;4969621;28;125575;-67
2023/03/26 10:43:35;;;;;;;;;;;;;;;22.30;43.03;99444.03;4955963;28;98297;-67
2023/03/26 10:46:24;;;;;;;;;;;;;;;22.46;42.87;99438.34;4966297;28;98634;-67
2023/03/26 10:49:08;;;;;;;;;;;;;;;23.26;42.13;99443.66;4966347;27;98682;-69
2023/03/26 10:51:50;;;;;;;;;;;;;;;25.08;40.24;99435.88;4970192;28;101253;-69
2023/03/26 10:54:48;;;;;;;;;;;;;;;25.14;40.61;99439.84;4953824;28;99844;-69
2023/03/26 10:57:25;;;;;;;;;;;;;;;25.07;41.25;99432.31;4941367;28;115170;-69
2023/03/26 10:59:53;;;;;;;;;;;;;;;25.11;41.61;99438.66;4968950;28;118439;-67
2023/03/26 11:02:30;;;;;;;;;;;;;;;25.89;40.75;99428.91;4953878;28;125525;-69
2023/03/26 11:05:22;;;;;;;;;;;;;;;25.67;41.20;99423.38;4956470;28;98065;-70
2023/03/26 11:08:02;;;;;;;;;;;;;;;25.46;41.84;99415.06;4942275;28;98790;-67
2023/03/26 11:10:46;;;;;;;;;;;;;;;25.28;41.92;99417.81;4967610;28;98494;-69
2023/03/26 11:13:47;;;;;;;;;;;;;;;25.12;42.29;99409.13;4969149;28;98267;-67
2023/03/26 11:16:24;;;;;;;;;;;;;;;25.76;41.55;99419.44;4968923;28;98084;-67
2023/03/26 11:18:56;;;;;;;;;;;;;;;25.42;42.19;99408.75;4952434;28;124698;-69
2023/03/26 11:21:44;;;;;;;;;;;;;;;25.43;42.10;99404.84;4953776;28;111259;-67
2023/03/26 11:24:31;;;;;;;;;;;;;;;26.82;40.54;99393.56;4954803;28;98092;-68
2023/03/26 11:27:06;;;;;;;;;;;;;;;29.59;37.77;99391.09;4973554;28;98636;-69
2023/03/26 11:29:41;;;;;;;;;;;;;;;30.88;36.90;99390.66;4939988;28;99175;-71
2023/03/26 11:32:31;;;;;;;;;;;;;;;31.24;37.37;99390.63;4956762;28;98868;-70
2023/03/26 11:35:04;;;;;;;;;;;;;;;31.40;37.86;99379.56;4958986;28;98816;-70
2023/03/26 11:37:37;;;;;;;;;;;;;;;30.18;39.68;99375.00;4966662;28;114011;-70
2023/03/26 11:40:10;;;;;;;;;;;;;;;29.60;40.85;99364.13;4952339;28;127663;-70
2023/03/26 11:42:36;;;;;;;;;;;;;;;29.43;40.98;99362.38;4937366;28;98449;-69
2023/03/26 11:45:06;;;;;;;;;;;;;;;28.89;41.33;99352.09;4966864;28;127361;-70
2023/03/26 11:47:37;;;;;;;;;;;;;;;28.50;41.95;99358.19;4939657;28;98121;-68
2023/03/26 11:50:05;;;;;;;;;;;;;;;28.41;41.62;99353.13;4953112;28;124986;-69
2023/03/26 11:52:31;;;;;;;;;;;;;;;28.96;40.87;99356.75;4941861;28;98288;-69
2023/03/26 11:54:58;;;;;;;;;;;;;;;29.35;40.75;99347.84;4970064;28;104407;-69
2023/03/26 11:57:29;;;;;;;;;;;;;;;29.03;41.29;99354.69;4968046;28;98299;-70
2023/03/26 12:00:15;;;;;;;;;;;;;;;28.89;41.63;99338.25;4939750;28;98679;-68
2023/03/26 12:02:41;;;;;;;;;;;;;;;29.26;41.03;99345.63;4942324;28;98657;-70
2023/03/26 12:05:25;;;;;;;;;;;;;;;29.67;40.72;99341.81;4966943;28;99240;-68
2023/03/26 12:07:58;;;;;;;;;;;;;;;29.89;40.49;99336.63;4967808;28;98913;-69
2023/03/26 12:10:37;;;;;;;;;;;;;;;30.26;40.03;99330.00;4967318;28;98022;-69
2023/03/26 12:13:34;;;;;;;;;;;;;;;30.05;40.75;99331.16;4947927;28;108590;-68
2023/03/26 12:16:14;;;;;;;;;;;;;;;29.48;41.47;99332.19;4926172;28;99346;-68
2023/03/26 12:18:42;;;;;;;;;;;;;;;29.06;41.96;99325.34;4950483;28;98052;-70
2023/03/26 12:21:16;;;;;;;;;;;;;;;28.88;42.16;99328.34;4956707;28;98645;-68
2023/03/26 12:23:43;;;;;;;;;;;;;;;28.67;42.50;99328.66;4964890;28;99096;-68
2023/03/26 12:26:18;;;;;;;;;;;;;;;28.26;42.48;99327.56;4966495;28;98701;-67
2023/03/26 12:28:45;;;;;;;;;;;;;;;27.80;43.27;99331.63;4968365;27;97956;-69
2023/03/26 12:31:17;;;;;;;;;;;;;;;27.39;43.16;99329.63;4973193;28;100080;-69
2023/03/26 12:33:43;;;;;;;;;;;;;;;27.00;43.59;99334.59;4942183;28;101261;-68
2023/03/26 12:36:25;;;;;;;;;;;;;;;26.64;43.61;99332.06;4971367;28;98544;-68
2023/03/26 12:38:51;;;;;;;;;;;;;;;26.37;43.97;99331.75;4937172;28;98119;-67
2023/03/26 12:41:19;;;;;;;;;;;;;;;26.10;43.92;99332.28;4955302;28;98903;-68
2023/03/26 12:43:49;;;;;;;;;;;;;;;25.82;44.17;99340.59;4971761;27;98404;-69
2023/03/26 12:46:31;;;;;;;;;;;;;;;25.56;44.30;99334.31;4970720;28;97909;-67
2023/03/26 12:49:05;;;;;;;;;;;;;;;25.27;44.74;99336.28;4970996;28;97997;-67
2023/03/26 12:51:51;;;;;;;;;;;;;;;25.09;44.34;99336.25;4970905;28;99290;-67
2023/03/26 12:54:57;;;;;;;;;;;;;;;25.02;44.37;99336.22;4959400;28;99197;-69
2023/03/26 12:57:25;;;;;;;;;;;;;;;24.92;44.33;99326.78;4929373;28;98638;-67
2023/03/26 13:00:00;;;;;;;;;;;;;;;24.93;43.88;99339.38;4970175;27;97975;-67
2023/03/26 13:02:34;;;;;;;;;;;;;;;25.09;43.59;99324.44;4970824;28;100281;-69
2023/03/26 13:05:55;;;;;;;;;;;;;;;25.11;43.63;99333.09;4973112;28;100127;-69
2023/03/26 13:08:42;;;;;;;;;;;;;;;25.18;43.63;99328.38;4911858;28;98437;-67
2023/03/26 13:11:23;;;;;;;;;;;;;;;25.07;43.52;99324.00;4937310;28;117207;-69
2023/03/26 13:14:14;;;;;;;;;;;;;;;25.06;43.61;99311.44;4971671;28;99237;-68
2023/03/26 13:16:50;;;;;;;;;;;;;;;25.11;43.51;99309.13;4960246;28;116017;-69